Copper Mountain, Colorado
Current Conditions -  °F | °C
As of 7:17 AM on Thursday 30 Oct 2014 (Local Time) from KCCU Reporting Station
Clear Clear  
Wind Chill: 17°   Ceiling: Unl
Heat Index: 28°   Visibility: NA
Dew Point: 18°   Wind: 14mph
Humidity: 64%   Direction: 270°W
Pressure: 30.54"   Gusts: NA
Location:  39.564°N, 106.162°W
Report Text: KCCU 301317Z AUTO 27012KT CLR M02/M08 A3054 RMK AO2 PWINO
Loading
Personal Weather Stations






























Interactive Weather Map
Tropical Storm Tracking
New forecast layout! Learn more

10-Day Weather Forecast

Advertisements
Track Severe Weather on mobile